首页
METAR-TAF:

METAR-TAF

机场 :

小萨尔加多国际机场

阿雷格里港, 南里奥格兰德州, 巴西

纬度: 30-00S, 经度: 051-11W, 海拔: 3米

当前天气观测

该预报发布于32分钟前的15:00 UTC
风速9节,风向东转东南
温度 16°C
湿度 94%
气压 1028 hPa
能見度: 6000
散云层高于900英尺
多云层高于1300英尺

METAR: SBPA 161500Z 11009KT 6000 SCT009 BKN013 16/15 Q1028

时间: 12:32 (15:32 UTC)

预报

该预报发布于6小时和32分钟前的09:00 UTC
预报有效从16日的 12点(UTC)到 17日的 12点(UTC)
风速5节,风向东转东南
能見度: 8000
散云层高于1000英尺
几率 40%
从 16日的 12点(UTC)到 16日的 14点(UTC)
能見度: 4000
多云层高于800英尺
轻雾
成为
从 16日的 14点(UTC)到 16日的 16点(UTC)
能见度10公里或以上
散云层高于2000英尺
成为
从 16日的 16点(UTC)到 16日的 18点(UTC)
散云层高于3500英尺
成为
从 16日的 18点(UTC)到 16日的 20点(UTC)
风速10节,风向东转东南
能见度10公里或以上
1500米以下无云,无积雨云
成为
从 17日的 04点(UTC)到 17日的 06点(UTC)
风速5节,风向
能見度: 3000
散云层高于200英尺
轻雾
几率 40%
从 17日的 08点(UTC)到 17日的 11点(UTC)
能見度: 2000
多云层高于200英尺
碎片雾

TAF: SBPA 160900Z 1612/1712 11005KT 8000 SCT010 TX20/1618Z TN09/1708Z PROB40 1612/1614 4000 BR BKN008 BECMG 1614/1616 9999 SCT020 BECMG 1616/1618 SCT035 BECMG 1618/1620 11010KT CAVOK BECMG 1704/1706 10005KT 3000 BR SCT002 PROB40 1708/1711 2000 BCFG BKN002 RMK PDJ

超过4000个机场的气象观测和天气预报(METAR&TAF报告)。

可查询的气象台以黄色和红色小点在地图上表示。

将鼠标移到小点上方,可查看气象台名称。

然后点击查看天气观测和预报。

如需切换地图:点击带黑十字的绿色按钮放大地图;点击带横线的绿色按钮缩小地图;或者点击绿色箭头查看邻近地区的地图。


METAR-TAF: